Detall de PIREP

Printer-friendly versionPDF version

[2017/04/12 16:05:00]
Flight IATA:CT1004
Pilot Number:012
Company ICAO:CAT
Aircraft Type:B763/F
PAX:263
Departing Airport: LEAL
Destination Airport: LPFR
Alternate Airport:LPPT
Online: VATSIM
Route:YES UN747 ONUBA R47 NAPES Y135 TUPIX
Flight Level:F310
No Slew and time accel
No pause
Crash detect
Detect pilot in Cockpit between each 30 and 45 minutes
16:05 Zero fuel Weight: 250409 Lbs, Fuel Weight: 26488 Lbs
16:05 VATSIM:LEAL 121530Z 16006KT 090V210 CAVOK 22/09 Q1018 NOSIG
16:05 VATSIM:LPFR 121530Z 13006KT 100V170 CAVOK 22/11 Q1018
16:05 EASTER CHARTER
16:06 Parking Brakes off
16:14 Take-off
16:14 Take off Weight: 275148 Lbs
16:14 Wind: 142º @ 005 Knots Heading: 101º
16:14 POS N38º 16´ 56´´ W000º 33´ 37´´
16:14 Flaps:2 at 168 Knots
16:14 Gear Up: 184 Knots
16:14 Flaps:1 at 206 Knots
16:15 Flaps:0 at 212 Knots
16:25 TOC
16:25 Fuel Weight: 19610 Lb
16:29 Wind:333º@002 Knots Heading: 273º Ground Speed: 476 Knots Altitude 31154 ft
16:44 Wind:196º@011 Knots Heading: 246º Ground Speed: 473 Knots Altitude 31095 ft
16:58 TOD
16:58 Fuel Weight: 14174 Lb
16:59 Wind:211º@028 Knots Heading: 253º Ground Speed: 449 Knots Altitude 30242 ft
17:12 Flaps:1 at 245 Knots
17:13 Flaps:2 at 218 Knots
17:14 Wind:106º@005 Knots Heading: 334º Ground Speed: 216 Knots Altitude 3051 ft
17:15 Flaps:3 at 188 Knots
17:16 Gear Down: 189 Knots
17:18 Flaps:4 at 176 Knots
17:18 Flaps:5 at 162 Knots
17:19 Flaps:6 at 142 Knots
17:21 TouchDown:Rate -183 ft/min Speed: 125 Knots
17:21 VATSIM:LPFR 121700Z 13005KT 100V160 CAVOK 21/11 Q1017
17:21 Land
17:21 Wind:082º@005 Knots
17:21 Heading: 100º
17:21 Flight Duration: 01:07
17:21 Landing Weight: 261924 Lbs
17:21 POS N37º 00´ 54´´ W007º 58´ 17´´
17:24 Parking brakes on
17:24 Block to Block Duration:01:18
17:24 Final Fuel: 11086 Lbls
17:24 Spent Fuel: 15401 Lbls
17:24 Flight Length: 435 NM
17:24 TOD Land Length: 110 NM

Exportar CSV

Powered by Drupal - Modified by Danger4k